Time;durP1;ratioP1;P1;durP2;ratioP2;P2;SDS_P1;SDS_P2;PMS_P1;PMS_P2;Temp;Humidity;BMP_temperature;BMP_pressure;BME280_temperature;BME280_humidity;BME280_pressure;Samples;Min_cycle;Max_cycle;Signal;HPM_P1;HPM_P2
2023/01/11 00:00:08;;;;;;;;;;;22.90;34.30;;;;;;476041;249;1732;-44
2023/01/11 00:02:09;;;;;;;;;;;22.60;34.80;;;;;;475997;249;1910;-45
2023/01/11 00:04:10;;;;;;;;;;;22.40;35.30;;;;;;476056;249;1735;-44
2023/01/11 00:06:12;;;;;;;;;;;22.20;35.60;;;;;;476027;249;2219;-44
2023/01/11 00:08:13;;;;;;;;;;;22.00;35.80;;;;;;475854;249;1695;-45
2023/01/11 00:10:14;;;;;;;;;;;21.90;36.00;;;;;;475757;249;1874;-44
2023/01/11 00:12:16;;;;;;;;;;;21.80;36.20;;;;;;475807;249;2279;-45
2023/01/11 00:14:17;;;;;;;;;;;21.70;36.50;;;;;;475891;249;2164;-44
2023/01/11 00:16:18;;;;;;;;;;;21.60;36.60;;;;;;476039;249;2076;-45
2023/01/11 00:18:20;;;;;;;;;;;21.60;36.70;;;;;;476041;249;1969;-44
2023/01/11 00:20:21;;;;;;;;;;;21.50;36.80;;;;;;475974;249;2218;-45
2023/01/11 00:22:22;;;;;;;;;;;21.40;36.90;;;;;;475950;249;2421;-44
2023/01/11 00:24:24;;;;;;;;;;;21.40;37.00;;;;;;475975;249;1721;-44
2023/01/11 00:26:25;;;;;;;;;;;21.30;37.00;;;;;;475957;249;2184;-45
2023/01/11 00:28:26;;;;;;;;;;;21.40;37.10;;;;;;475909;249;1749;-45
2023/01/11 00:30:28;;;;;;;;;;;21.30;37.20;;;;;;475900;249;2297;-44
2023/01/11 00:32:29;;;;;;;;;;;21.20;37.30;;;;;;475925;249;1837;-44
2023/01/11 00:34:30;;;;;;;;;;;21.20;37.40;;;;;;476111;249;1751;-44
2023/01/11 00:36:32;;;;;;;;;;;21.10;37.50;;;;;;475731;249;2012;-44
2023/01/11 00:38:52;;;;;;;;;;;21.10;37.50;;;;;;475841;249;1730;-44
2023/01/11 00:40:52;;;;;;;;;;;21.20;37.50;;;;;;475651;250;2220;-45
2023/01/11 00:49:51;;;;;;;;;;;22.20;35.60;;;;;;476161;250;1825;-45
2023/01/11 00:51:52;;;;;;;;;;;22.30;35.30;;;;;;476045;249;1736;-44
2023/01/11 00:53:53;;;;;;;;;;;22.50;35.20;;;;;;476184;249;2405;-44
2023/01/11 00:55:55;;;;;;;;;;;22.50;35.00;;;;;;476338;249;1703;-44
2023/01/11 00:57:56;;;;;;;;;;;22.60;34.90;;;;;;476212;249;1712;-45
2023/01/11 00:59:57;;;;;;;;;;;22.70;34.80;;;;;;476737;249;1712;-44
2023/01/11 01:01:59;;;;;;;;;;;22.70;34.60;;;;;;476570;249;1837;-44
2023/01/11 01:04:00;;;;;;;;;;;22.80;34.60;;;;;;476290;249;1763;-45
2023/01/11 01:06:01;;;;;;;;;;;22.90;34.50;;;;;;476204;249;2251;-45
2023/01/11 01:08:03;;;;;;;;;;;22.90;34.40;;;;;;476284;249;1660;-45
2023/01/11 01:10:04;;;;;;;;;;;22.90;34.30;;;;;;476206;249;1746;-45
2023/01/11 01:12:05;;;;;;;;;;;23.00;34.30;;;;;;476195;249;1243;-45
2023/01/11 01:14:25;;;;;;;;;;;23.00;34.20;;;;;;476225;249;1705;-45
2023/01/11 01:16:26;;;;;;;;;;;23.10;34.20;;;;;;476118;249;1725;-45
2023/01/11 01:18:28;;;;;;;;;;;23.10;34.10;;;;;;476213;249;1846;-45
2023/01/11 01:20:29;;;;;;;;;;;23.10;34.00;;;;;;476247;249;1963;-45
2023/01/11 01:22:30;;;;;;;;;;;23.20;34.00;;;;;;476226;249;1771;-45
2023/01/11 01:24:32;;;;;;;;;;;23.20;34.00;;;;;;476169;249;1691;-44
2023/01/11 01:26:33;;;;;;;;;;;23.20;33.90;;;;;;476107;249;2192;-45
2023/01/11 01:28:34;;;;;;;;;;;23.20;33.90;;;;;;476216;249;1718;-45
2023/01/11 01:30:35;;;;;;;;;;;23.30;33.80;;;;;;476160;249;1915;-44
2023/01/11 01:32:37;;;;;;;;;;;23.30;33.80;;;;;;476219;249;1684;-45
2023/01/11 01:34:38;;;;;;;;;;;23.30;33.80;;;;;;476312;249;2033;-45
2023/01/11 01:36:39;;;;;;;;;;;23.40;33.80;;;;;;476436;249;1706;-45
2023/01/11 01:38:41;;;;;;;;;;;23.40;33.70;;;;;;476281;249;2096;-45
2023/01/11 01:40:42;;;;;;;;;;;23.40;33.70;;;;;;476250;249;1948;-45
2023/01/11 01:42:43;;;;;;;;;;;23.40;33.60;;;;;;476094;249;1705;-44
2023/01/11 01:44:45;;;;;;;;;;;23.40;33.60;;;;;;476007;249;1884;-45
2023/01/11 01:46:46;;;;;;;;;;;23.50;33.60;;;;;;476095;249;2167;-45
2023/01/11 01:48:47;;;;;;;;;;;23.50;33.60;;;;;;476007;249;1510;-45
2023/01/11 01:50:49;;;;;;;;;;;23.50;33.60;;;;;;476304;249;2200;-45
2023/01/11 01:52:50;;;;;;;;;;;23.50;33.60;;;;;;476163;249;2122;-44
2023/01/11 01:54:51;;;;;;;;;;;23.50;33.60;;;;;;476417;249;1757;-45
2023/01/11 01:56:53;;;;;;;;;;;23.50;33.60;;;;;;476510;249;1736;-44
2023/01/11 01:58:54;;;;;;;;;;;23.30;33.80;;;;;;476216;249;1729;-45
2023/01/11 02:00:55;;;;;;;;;;;23.00;34.10;;;;;;476143;249;1897;-45
2023/01/11 02:02:57;;;;;;;;;;;22.70;34.60;;;;;;476179;249;2010;-45
2023/01/11 02:04:58;;;;;;;;;;;22.50;35.10;;;;;;476117;249;1742;-44
2023/01/11 02:06:59;;;;;;;;;;;22.30;35.40;;;;;;476476;249;2152;-45
2023/01/11 02:09:01;;;;;;;;;;;22.20;35.70;;;;;;476207;249;1706;-45
2023/01/11 02:11:02;;;;;;;;;;;22.00;35.90;;;;;;476277;249;2079;-45
2023/01/11 02:13:03;;;;;;;;;;;22.00;36.10;;;;;;476287;249;1947;-45
2023/01/11 02:15:05;;;;;;;;;;;21.90;36.30;;;;;;476287;249;2095;-45
2023/01/11 02:17:06;;;;;;;;;;;21.70;36.30;;;;;;476123;249;1866;-44
2023/01/11 02:19:07;;;;;;;;;;;21.70;36.50;;;;;;476145;249;2305;-44
2023/01/11 02:21:08;;;;;;;;;;;21.70;36.60;;;;;;476256;249;1678;-44
2023/01/11 02:23:10;;;;;;;;;;;21.60;36.70;;;;;;476490;249;1557;-44
2023/01/11 02:25:12;;;;;;;;;;;21.60;36.70;;;;;;476312;249;1678;-44
2023/01/11 02:27:13;;;;;;;;;;;21.50;36.80;;;;;;476297;249;2161;-44
2023/01/11 02:29:14;;;;;;;;;;;21.50;36.80;;;;;;476225;249;2611;-45
2023/01/11 02:31:16;;;;;;;;;;;21.40;36.90;;;;;;476217;249;1751;-44
2023/01/11 02:33:17;;;;;;;;;;;21.40;37.00;;;;;;476394;249;1717;-44
2023/01/11 02:35:18;;;;;;;;;;;21.30;37.10;;;;;;476075;249;1850;-45
2023/01/11 02:37:20;;;;;;;;;;;21.40;37.10;;;;;;476304;249;2384;-44
2023/01/11 02:39:21;;;;;;;;;;;21.30;37.10;;;;;;476265;249;1728;-44
2023/01/11 02:41:22;;;;;;;;;;;21.30;37.20;;;;;;476164;249;2534;-44
2023/01/11 02:45:43;;;;;;;;;;;21.20;37.30;;;;;;476158;250;2167;-44
2023/01/11 02:47:44;;;;;;;;;;;21.20;37.40;;;;;;476294;249;1695;-44
2023/01/11 02:49:46;;;;;;;;;;;21.20;37.40;;;;;;476336;249;1490;-44
2023/01/11 02:51:47;;;;;;;;;;;21.10;37.50;;;;;;476359;249;2231;-44
2023/01/11 02:53:48;;;;;;;;;;;21.10;37.50;;;;;;476292;249;1524;-44
2023/01/11 02:55:50;;;;;;;;;;;21.10;37.50;;;;;;476741;249;2489;-44
2023/01/11 02:57:51;;;;;;;;;;;21.10;37.60;;;;;;476361;249;2705;-44
2023/01/11 02:59:54;;;;;;;;;;;21.20;37.50;;;;;;476336;249;2081;-44
2023/01/11 03:01:54;;;;;;;;;;;21.40;37.10;;;;;;476091;250;2163;-45
2023/01/11 03:03:55;;;;;;;;;;;21.70;36.70;;;;;;476217;249;2771;-45
2023/01/11 03:05:57;;;;;;;;;;;21.90;36.20;;;;;;476123;249;3161;-45
2023/01/11 03:07:58;;;;;;;;;;;22.10;35.90;;;;;;476116;249;1734;-44
2023/01/11 03:09:59;;;;;;;;;;;22.20;35.60;;;;;;475988;249;1564;-45
2023/01/11 03:14:20;;;;;;;;;;;22.40;35.20;;;;;;476139;250;1760;-45
2023/01/11 03:16:21;;;;;;;;;;;22.50;35.10;;;;;;476042;249;1852;-44
2023/01/11 03:18:23;;;;;;;;;;;22.60;34.90;;;;;;476082;249;2143;-44
2023/01/11 03:20:24;;;;;;;;;;;22.70;34.80;;;;;;476030;249;1715;-44
2023/01/11 03:22:25;;;;;;;;;;;22.70;34.70;;;;;;476116;249;1756;-45
2023/01/11 03:24:27;;;;;;;;;;;22.70;34.60;;;;;;476212;249;1683;-45
2023/01/11 03:26:28;;;;;;;;;;;22.80;34.50;;;;;;476112;249;2188;-45
2023/01/11 03:28:29;;;;;;;;;;;22.90;34.50;;;;;;476178;249;1938;-44
2023/01/11 03:30:31;;;;;;;;;;;22.90;34.40;;;;;;476200;249;1752;-45
2023/01/11 03:32:32;;;;;;;;;;;22.90;34.30;;;;;;476217;249;2553;-45
2023/01/11 03:34:33;;;;;;;;;;;23.00;34.30;;;;;;476154;249;2182;-44
2023/01/11 03:36:35;;;;;;;;;;;23.00;34.20;;;;;;476429;249;1690;-44
2023/01/11 03:38:36;;;;;;;;;;;23.00;34.10;;;;;;476333;249;1806;-45
2023/01/11 03:40:37;;;;;;;;;;;23.10;34.10;;;;;;476304;249;2161;-45
2023/01/11 03:43:09;;;;;;;;;;;23.10;34.10;;;;;;476400;249;1808;-45
2023/01/11 03:44:41;;;;;;;;;;;23.10;34.00;;;;;;474845;250;1753;-45
2023/01/11 03:46:42;;;;;;;;;;;23.20;34.00;;;;;;476239;249;2247;-45
2023/01/11 03:48:43;;;;;;;;;;;23.20;34.00;;;;;;476296;249;2205;-45
2023/01/11 03:50:44;;;;;;;;;;;23.20;33.90;;;;;;476174;249;1779;-45
2023/01/11 03:52:46;;;;;;;;;;;23.30;33.90;;;;;;476194;249;1681;-45
2023/01/11 03:54:47;;;;;;;;;;;23.30;33.90;;;;;;476420;249;2204;-45
2023/01/11 03:56:49;;;;;;;;;;;23.30;33.80;;;;;;476310;249;1713;-45
2023/01/11 03:58:50;;;;;;;;;;;23.40;33.80;;;;;;476211;249;2430;-45
2023/01/11 04:00:51;;;;;;;;;;;23.30;33.70;;;;;;476162;249;2167;-44
2023/01/11 04:02:53;;;;;;;;;;;23.40;33.70;;;;;;476220;249;1754;-45
2023/01/11 04:04:54;;;;;;;;;;;23.40;33.60;;;;;;476503;249;1629;-45
2023/01/11 04:06:55;;;;;;;;;;;23.40;33.60;;;;;;476173;249;2200;-45
2023/01/11 04:08:56;;;;;;;;;;;23.40;33.60;;;;;;476171;249;1715;-45
2023/01/11 04:10:58;;;;;;;;;;;23.40;33.60;;;;;;476427;249;1448;-45
2023/01/11 04:12:59;;;;;;;;;;;23.50;33.60;;;;;;476333;249;1564;-45
2023/01/11 04:15:02;;;;;;;;;;;23.50;33.50;;;;;;476178;249;1769;-44
2023/01/11 04:17:02;;;;;;;;;;;23.50;33.50;;;;;;476299;249;1693;-45
2023/01/11 04:19:04;;;;;;;;;;;23.50;33.50;;;;;;476307;249;1798;-45
2023/01/11 04:21:05;;;;;;;;;;;23.50;33.50;;;;;;476327;249;1810;-45
2023/01/11 04:23:06;;;;;;;;;;;23.50;33.50;;;;;;476273;249;1764;-45
2023/01/11 04:25:08;;;;;;;;;;;23.60;33.50;;;;;;476297;249;2101;-45
2023/01/11 04:27:09;;;;;;;;;;;23.60;33.50;;;;;;476243;249;2189;-45
2023/01/11 04:29:11;;;;;;;;;;;23.50;33.50;;;;;;476313;249;1751;-44
2023/01/11 04:31:12;;;;;;;;;;;23.50;33.60;;;;;;476349;249;1730;-44
2023/01/11 04:33:13;;;;;;;;;;;23.20;33.90;;;;;;476241;249;1703;-45
2023/01/11 04:35:15;;;;;;;;;;;23.00;34.40;;;;;;476293;249;2364;-45
2023/01/11 04:37:16;;;;;;;;;;;22.70;34.80;;;;;;476140;249;2197;-44
2023/01/11 04:39:17;;;;;;;;;;;22.40;35.30;;;;;;476395;249;1728;-45
2023/01/11 04:43:38;;;;;;;;;;;22.10;35.90;;;;;;476276;250;2470;-44
2023/01/11 04:45:39;;;;;;;;;;;22.00;36.10;;;;;;476425;249;1642;-44
2023/01/11 04:47:40;;;;;;;;;;;21.90;36.30;;;;;;476124;249;2358;-44
2023/01/11 04:49:42;;;;;;;;;;;21.90;36.40;;;;;;476284;249;2128;-44
2023/01/11 04:51:43;;;;;;;;;;;21.80;36.50;;;;;;476156;249;1718;-44
2023/01/11 04:53:44;;;;;;;;;;;21.70;36.60;;;;;;476312;249;1712;-44
2023/01/11 04:55:46;;;;;;;;;;;21.70;36.70;;;;;;476144;249;2521;-44
2023/01/11 04:57:47;;;;;;;;;;;21.60;36.80;;;;;;476424;249;1820;-45
2023/01/11 04:59:48;;;;;;;;;;;21.60;36.90;;;;;;476505;249;1840;-44
2023/01/11 05:01:50;;;;;;;;;;;21.50;36.90;;;;;;476279;249;2127;-45
2023/01/11 05:03:51;;;;;;;;;;;21.50;36.90;;;;;;476322;249;2121;-45
2023/01/11 05:05:52;;;;;;;;;;;21.50;36.90;;;;;;476179;249;1748;-44
2023/01/11 05:07:54;;;;;;;;;;;21.50;37.00;;;;;;476263;249;2210;-44
2023/01/11 05:09:55;;;;;;;;;;;21.40;37.00;;;;;;476358;249;1675;-45
2023/01/11 05:11:56;;;;;;;;;;;21.40;37.20;;;;;;476125;249;1750;-44
2023/01/11 05:13:58;;;;;;;;;;;21.30;37.30;;;;;;476274;249;1950;-44
2023/01/11 05:15:59;;;;;;;;;;;21.30;37.30;;;;;;476191;249;2274;-45
2023/01/11 05:18:00;;;;;;;;;;;21.30;37.30;;;;;;476239;249;1784;-44
2023/01/11 05:20:03;;;;;;;;;;;21.20;37.40;;;;;;476203;249;2036;-44
2023/01/11 05:22:04;;;;;;;;;;;21.20;37.40;;;;;;476397;249;1854;-44
2023/01/11 05:24:05;;;;;;;;;;;21.20;37.50;;;;;;476459;249;1930;-44
2023/01/11 05:26:07;;;;;;;;;;;21.10;37.50;;;;;;476341;249;2440;-44
2023/01/11 05:28:08;;;;;;;;;;;21.20;37.50;;;;;;475967;249;2208;-44
2023/01/11 05:30:09;;;;;;;;;;;21.10;37.50;;;;;;476245;249;1769;-45
2023/01/11 05:32:11;;;;;;;;;;;21.10;37.50;;;;;;476284;249;1718;-44
2023/01/11 05:34:13;;;;;;;;;;;21.10;37.60;;;;;;476207;249;1423;-44
2023/01/11 05:36:14;;;;;;;;;;;21.40;37.40;;;;;;476283;249;1638;-45
2023/01/11 05:38:15;;;;;;;;;;;21.60;36.80;;;;;;476439;249;1729;-45
2023/01/11 05:40:17;;;;;;;;;;;21.80;36.30;;;;;;476261;249;1791;-44
2023/01/11 05:42:18;;;;;;;;;;;22.00;36.00;;;;;;476423;249;1706;-45
2023/01/11 05:46:39;;;;;;;;;;;22.30;35.50;;;;;;476453;250;2156;-44
2023/01/11 05:48:40;;;;;;;;;;;22.40;35.30;;;;;;476532;249;2195;-45
2023/01/11 05:50:41;;;;;;;;;;;22.50;35.10;;;;;;476191;249;1965;-45
2023/01/11 05:52:43;;;;;;;;;;;22.60;35.00;;;;;;476210;249;2208;-45
2023/01/11 05:54:44;;;;;;;;;;;22.70;34.90;;;;;;476057;249;1685;-45
2023/01/11 05:56:45;;;;;;;;;;;22.70;34.70;;;;;;476200;249;1641;-45
2023/01/11 05:58:47;;;;;;;;;;;22.80;34.70;;;;;;476135;249;1714;-45
2023/01/11 06:00:48;;;;;;;;;;;22.80;34.50;;;;;;476394;249;1592;-45
2023/01/11 06:02:49;;;;;;;;;;;22.90;34.50;;;;;;476182;249;2690;-44
2023/01/11 06:04:51;;;;;;;;;;;22.90;34.40;;;;;;476170;249;1674;-45
2023/01/11 06:06:52;;;;;;;;;;;23.00;34.40;;;;;;476450;249;1754;-44
2023/01/11 06:08:53;;;;;;;;;;;23.00;34.30;;;;;;476274;249;2445;-45
2023/01/11 06:10:54;;;;;;;;;;;23.10;34.30;;;;;;476123;249;1742;-44
2023/01/11 06:13:25;;;;;;;;;;;23.10;34.20;;;;;;476243;249;1761;-45
2023/01/11 06:14:57;;;;;;;;;;;23.10;34.10;;;;;;474739;250;1525;-44
2023/01/11 06:16:59;;;;;;;;;;;23.10;34.10;;;;;;476132;249;2055;-45
2023/01/11 06:19:00;;;;;;;;;;;23.20;34.10;;;;;;476087;250;1993;-45
2023/01/11 06:21:01;;;;;;;;;;;23.20;34.00;;;;;;476118;249;2015;-45
2023/01/11 06:23:03;;;;;;;;;;;23.20;34.00;;;;;;476114;249;1682;-45
2023/01/11 06:25:04;;;;;;;;;;;23.20;33.90;;;;;;476377;249;1771;-45
2023/01/11 06:27:05;;;;;;;;;;;23.30;33.90;;;;;;476098;249;2181;-45
2023/01/11 06:29:07;;;;;;;;;;;23.30;33.90;;;;;;476213;249;2194;-45
2023/01/11 06:31:08;;;;;;;;;;;23.30;33.80;;;;;;476445;249;2619;-45
2023/01/11 06:33:09;;;;;;;;;;;23.30;33.80;;;;;;476321;249;1728;-45
2023/01/11 06:35:10;;;;;;;;;;;23.40;33.80;;;;;;476188;249;1663;-45
2023/01/11 06:37:12;;;;;;;;;;;23.40;33.80;;;;;;476080;249;1862;-45
2023/01/11 06:39:13;;;;;;;;;;;23.40;33.80;;;;;;476073;249;2036;-45
2023/01/11 06:41:15;;;;;;;;;;;23.40;33.70;;;;;;476097;249;1945;-45
2023/01/11 06:43:16;;;;;;;;;;;23.50;33.70;;;;;;476100;249;1802;-44
2023/01/11 06:45:17;;;;;;;;;;;23.50;33.70;;;;;;476090;249;1687;-44
2023/01/11 06:47:19;;;;;;;;;;;23.50;33.60;;;;;;475975;249;2244;-45
2023/01/11 06:49:20;;;;;;;;;;;23.50;33.60;;;;;;476031;249;1727;-45
2023/01/11 06:51:21;;;;;;;;;;;23.50;33.60;;;;;;475989;249;1737;-45
2023/01/11 06:53:23;;;;;;;;;;;23.50;33.60;;;;;;476069;249;1823;-44
2023/01/11 06:55:24;;;;;;;;;;;23.60;33.60;;;;;;476145;249;2122;-45
2023/01/11 06:57:25;;;;;;;;;;;23.60;33.50;;;;;;476246;249;1686;-45
2023/01/11 06:59:27;;;;;;;;;;;23.60;33.50;;;;;;475808;249;1776;-45
2023/01/11 07:01:29;;;;;;;;;;;23.50;33.60;;;;;;476046;249;1936;-45
2023/01/11 07:03:29;;;;;;;;;;;23.50;33.60;;;;;;475771;249;2369;-44
2023/01/11 07:05:30;;;;;;;;;;;23.30;33.90;;;;;;475757;249;1699;-44
2023/01/11 07:07:32;;;;;;;;;;;23.10;34.30;;;;;;475842;249;2187;-45
2023/01/11 07:09:33;;;;;;;;;;;22.80;34.60;;;;;;475860;249;2130;-44
2023/01/11 07:11:37;;;;;;;;;;;22.70;34.90;;;;;;475860;249;1699;-45
2023/01/11 07:13:36;;;;;;;;;;;22.50;35.20;;;;;;475547;250;1712;-44
2023/01/11 07:15:37;;;;;;;;;;;22.40;35.50;;;;;;475834;249;1747;-44
2023/01/11 07:17:38;;;;;;;;;;;22.20;35.60;;;;;;475850;249;1933;-45
2023/01/11 07:19:40;;;;;;;;;;;22.10;35.80;;;;;;475939;249;1876;-44
2023/01/11 07:21:41;;;;;;;;;;;22.10;36.00;;;;;;475813;249;1847;-44
2023/01/11 07:23:43;;;;;;;;;;;22.00;36.00;;;;;;475717;249;1724;-45
2023/01/11 07:25:44;;;;;;;;;;;22.00;36.00;;;;;;475895;249;2187;-44
2023/01/11 07:27:45;;;;;;;;;;;22.00;36.10;;;;;;475994;249;2184;-44
2023/01/11 07:29:46;;;;;;;;;;;22.00;36.20;;;;;;475868;249;1905;-45
2023/01/11 07:31:48;;;;;;;;;;;21.90;36.20;;;;;;475854;249;2160;-45
2023/01/11 07:33:49;;;;;;;;;;;21.90;36.30;;;;;;475743;250;2933;-45
2023/01/11 07:35:50;;;;;;;;;;;21.80;36.30;;;;;;475904;249;1789;-45
2023/01/11 07:37:52;;;;;;;;;;;21.90;36.40;;;;;;476000;249;1703;-44
2023/01/11 07:39:53;;;;;;;;;;;21.80;36.40;;;;;;475949;249;1593;-45
2023/01/11 07:44:14;;;;;;;;;;;21.70;36.40;;;;;;475690;250;2003;-44
2023/01/11 07:46:15;;;;;;;;;;;21.60;36.50;;;;;;475981;249;1731;-45
2023/01/11 07:48:19;;;;;;;;;;;21.70;36.50;;;;;;475749;249;2165;-44
2023/01/11 07:50:17;;;;;;;;;;;21.70;36.40;;;;;;475671;250;2265;-45
2023/01/11 07:52:19;;;;;;;;;;;21.60;36.50;;;;;;475791;249;1758;-45
2023/01/11 07:54:21;;;;;;;;;;;21.60;36.50;;;;;;475718;249;1842;-44
2023/01/11 07:56:21;;;;;;;;;;;21.60;36.60;;;;;;475768;249;1667;-45
2023/01/11 07:58:23;;;;;;;;;;;21.60;36.60;;;;;;475846;249;1682;-45
2023/01/11 08:00:24;;;;;;;;;;;21.60;36.60;;;;;;475779;249;1740;-44
2023/01/11 08:02:25;;;;;;;;;;;21.60;36.60;;;;;;475846;249;1806;-45
2023/01/11 08:04:27;;;;;;;;;;;21.60;36.60;;;;;;475797;249;1708;-45
2023/01/11 08:06:28;;;;;;;;;;;21.50;36.70;;;;;;475728;249;1635;-45
2023/01/11 08:08:29;;;;;;;;;;;21.50;36.70;;;;;;475748;249;2211;-44
2023/01/11 08:10:31;;;;;;;;;;;21.40;36.70;;;;;;475788;249;1746;-45
2023/01/11 08:14:51;;;;;;;;;;;21.40;36.80;;;;;;475568;250;2362;-44
2023/01/11 08:16:52;;;;;;;;;;;21.40;36.90;;;;;;475714;249;1970;-44
2023/01/11 08:18:54;;;;;;;;;;;21.30;37.00;;;;;;475699;249;1692;-44
2023/01/11 08:20:55;;;;;;;;;;;21.30;36.90;;;;;;475932;249;1746;-44
2023/01/11 08:22:56;;;;;;;;;;;21.30;37.00;;;;;;475691;250;1891;-44
2023/01/11 08:24:58;;;;;;;;;;;21.30;37.00;;;;;;475826;249;1716;-45
2023/01/11 08:26:59;;;;;;;;;;;21.20;37.00;;;;;;475730;249;2325;-44
2023/01/11 08:29:00;;;;;;;;;;;21.20;37.00;;;;;;475953;249;2216;-44
2023/01/11 08:31:02;;;;;;;;;;;21.20;37.10;;;;;;475890;249;1721;-44
2023/01/11 08:33:03;;;;;;;;;;;21.20;37.10;;;;;;475893;249;1614;-44
2023/01/11 08:35:04;;;;;;;;;;;21.20;37.20;;;;;;476071;249;1809;-44
2023/01/11 08:37:06;;;;;;;;;;;21.20;37.20;;;;;;475866;249;1933;-44
2023/01/11 08:39:07;;;;;;;;;;;21.20;37.20;;;;;;475962;249;1662;-45
2023/01/11 08:41:10;;;;;;;;;;;21.20;37.40;;;;;;476146;249;1706;-44
2023/01/11 08:43:11;;;;;;;;;;;21.30;37.40;;;;;;475937;249;1672;-45
2023/01/11 08:45:13;;;;;;;;;;;21.30;37.30;;;;;;476165;249;1694;-45
2023/01/11 08:47:14;;;;;;;;;;;21.30;37.20;;;;;;475960;249;1689;-44
2023/01/11 08:49:15;;;;;;;;;;;21.20;37.20;;;;;;476045;249;2173;-44
2023/01/11 08:51:17;;;;;;;;;;;21.20;37.20;;;;;;475969;249;1596;-44
2023/01/11 08:53:20;;;;;;;;;;;21.20;37.20;;;;;;475902;249;1678;-43
2023/01/11 08:55:21;;;;;;;;;;;21.20;37.20;;;;;;476385;249;1830;-44
2023/01/11 08:57:22;;;;;;;;;;;21.20;37.30;;;;;;475882;249;1738;-44
2023/01/11 08:59:24;;;;;;;;;;;21.20;37.40;;;;;;475901;249;2436;-44
2023/01/11 09:01:25;;;;;;;;;;;21.20;37.30;;;;;;475993;249;1699;-44
2023/01/11 09:03:27;;;;;;;;;;;21.20;37.40;;;;;;475998;249;1696;-44
2023/01/11 09:05:28;;;;;;;;;;;21.30;37.20;;;;;;476089;249;2172;-44
2023/01/11 09:07:29;;;;;;;;;;;21.70;36.60;;;;;;475980;249;2082;-44
2023/01/11 09:09:31;;;;;;;;;;;22.00;36.00;;;;;;475945;249;2226;-44
2023/01/11 09:13:51;;;;;;;;;;;22.40;35.20;;;;;;475874;250;1385;-44
2023/01/11 09:15:53;;;;;;;;;;;22.50;34.80;;;;;;475979;249;1769;-44
2023/01/11 09:17:54;;;;;;;;;;;22.70;34.70;;;;;;475982;249;1665;-44
2023/01/11 09:19:55;;;;;;;;;;;22.80;34.50;;;;;;475896;249;1722;-44
2023/01/11 09:21:59;;;;;;;;;;;22.90;34.40;;;;;;475967;249;2335;-44
2023/01/11 09:23:58;;;;;;;;;;;22.90;34.30;;;;;;475640;250;2254;-44
2023/01/11 09:26:00;;;;;;;;;;;22.90;34.10;;;;;;475925;249;1735;-44
2023/01/11 09:28:01;;;;;;;;;;;23.00;34.30;;;;;;475804;249;2616;-44
2023/01/11 09:30:02;;;;;;;;;;;23.10;34.10;;;;;;475864;249;2159;-44
2023/01/11 09:32:04;;;;;;;;;;;23.10;34.00;;;;;;475872;249;1802;-44
2023/01/11 09:34:05;;;;;;;;;;;23.10;33.90;;;;;;475928;249;2139;-44
2023/01/11 09:36:06;;;;;;;;;;;23.10;34.20;;;;;;475799;249;1917;-44
2023/01/11 09:38:08;;;;;;;;;;;23.00;34.30;;;;;;475753;249;1703;-44
2023/01/11 09:40:09;;;;;;;;;;;22.70;34.50;;;;;;475123;249;1672;-44
2023/01/11 09:42:10;;;;;;;;;;;22.50;35.00;;;;;;474560;249;1702;-44
2023/01/11 09:44:14;;;;;;;;;;;22.30;35.20;;;;;;475596;249;1802;-44
2023/01/11 09:46:13;;;;;;;;;;;22.20;35.50;;;;;;475594;250;1831;-44
2023/01/11 09:48:20;;;;;;;;;;;22.20;35.60;;;;;;475724;249;2192;-44
2023/01/11 09:50:16;;;;;;;;;;;22.10;35.70;;;;;;475577;250;1707;-44
2023/01/11 09:52:17;;;;;;;;;;;22.00;35.90;;;;;;475781;249;1580;-44
2023/01/11 09:54:19;;;;;;;;;;;22.00;35.90;;;;;;475596;249;1736;-44
2023/01/11 09:56:23;;;;;;;;;;;21.90;36.00;;;;;;475626;249;1784;-44
2023/01/11 09:58:25;;;;;;;;;;;21.90;36.10;;;;;;475722;250;1936;-44
2023/01/11 10:00:24;;;;;;;;;;;21.80;36.30;;;;;;475721;250;2389;-44
2023/01/11 10:02:25;;;;;;;;;;;21.70;36.40;;;;;;475829;249;1721;-44
2023/01/11 10:04:31;;;;;;;;;;;21.80;36.40;;;;;;475846;249;1937;-44
2023/01/11 10:06:27;;;;;;;;;;;21.80;36.40;;;;;;475371;250;1930;-44
2023/01/11 10:08:37;;;;;;;;;;;21.70;36.40;;;;;;475744;249;2149;-44
2023/01/11 10:10:30;;;;;;;;;;;21.80;36.50;;;;;;475142;250;2180;-43
2023/01/11 10:12:31;;;;;;;;;;;21.80;36.50;;;;;;475805;249;1880;-44
2023/01/11 10:14:34;;;;;;;;;;;21.70;36.50;;;;;;475737;249;1728;-44
2023/01/11 10:16:35;;;;;;;;;;;21.80;36.40;;;;;;475871;249;2097;-44
2023/01/11 10:18:35;;;;;;;;;;;21.80;36.40;;;;;;475824;249;1979;-44
2023/01/11 10:20:40;;;;;;;;;;;21.80;36.30;;;;;;475755;249;1605;-44
2023/01/11 10:22:40;;;;;;;;;;;21.80;36.40;;;;;;475572;250;2145;-44
2023/01/11 10:24:40;;;;;;;;;;;21.90;36.30;;;;;;475616;250;2299;-44
2023/01/11 10:26:42;;;;;;;;;;;22.00;36.20;;;;;;475631;249;1730;-44
2023/01/11 10:28:49;;;;;;;;;;;22.00;36.10;;;;;;475685;250;2208;-44
2023/01/11 10:31:05;;;;;;;;;;;22.10;36.00;;;;;;475357;250;2320;-44
2023/01/11 10:32:56;;;;;;;;;;;22.20;35.80;;;;;;474635;250;2279;-44
2023/01/11 10:35:16;;;;;;;;;;;22.20;35.70;;;;;;475371;250;2183;-44
2023/01/11 10:37:17;;;;;;;;;;;22.30;35.70;;;;;;474469;250;1851;-44
2023/01/11 10:39:16;;;;;;;;;;;22.30;35.60;;;;;;474766;250;2428;-43
2023/01/11 10:41:18;;;;;;;;;;;22.30;35.50;;;;;;475488;250;2251;-44
2023/01/11 10:43:15;;;;;;;;;;;22.30;35.50;;;;;;475422;250;2303;-44
2023/01/11 10:45:14;;;;;;;;;;;22.40;35.50;;;;;;475732;250;2119;-44
2023/01/11 10:47:16;;;;;;;;;;;22.30;35.50;;;;;;476073;249;1953;-44
2023/01/11 10:49:17;;;;;;;;;;;22.40;35.50;;;;;;475916;249;2204;-44
2023/01/11 10:51:18;;;;;;;;;;;22.40;35.40;;;;;;475910;249;1978;-44
2023/01/11 10:53:20;;;;;;;;;;;22.40;35.40;;;;;;475977;249;1941;-44
2023/01/11 10:55:22;;;;;;;;;;;22.40;35.40;;;;;;475873;249;1897;-44
2023/01/11 10:57:22;;;;;;;;;;;22.40;35.40;;;;;;475772;249;1797;-44
2023/01/11 10:59:24;;;;;;;;;;;22.40;35.40;;;;;;475728;249;1686;-44
2023/01/11 11:01:29;;;;;;;;;;;22.30;35.40;;;;;;475732;249;1628;-44
2023/01/11 11:03:27;;;;;;;;;;;22.40;35.40;;;;;;475524;250;2341;-43
2023/01/11 11:05:28;;;;;;;;;;;22.30;35.30;;;;;;476061;249;1920;-44
2023/01/11 11:07:33;;;;;;;;;;;22.30;35.40;;;;;;475715;249;1708;-44
2023/01/11 11:09:32;;;;;;;;;;;22.40;35.50;;;;;;475403;250;2208;-44
2023/01/11 11:11:33;;;;;;;;;;;22.30;35.40;;;;;;475625;249;1628;-44
2023/01/11 11:13:35;;;;;;;;;;;22.40;35.50;;;;;;475639;249;1687;-44
2023/01/11 11:15:36;;;;;;;;;;;22.30;35.40;;;;;;475741;249;1946;-44
2023/01/11 11:17:37;;;;;;;;;;;22.40;35.50;;;;;;475875;249;1685;-44
2023/01/11 11:19:39;;;;;;;;;;;22.40;35.50;;;;;;475875;249;1929;-44
2023/01/11 11:21:40;;;;;;;;;;;22.40;35.40;;;;;;475921;249;1857;-44
2023/01/11 11:23:41;;;;;;;;;;;22.40;35.50;;;;;;475644;249;1701;-44
2023/01/11 11:25:43;;;;;;;;;;;22.40;35.40;;;;;;475829;249;1701;-44
2023/01/11 11:27:44;;;;;;;;;;;22.40;35.40;;;;;;475900;249;1696;-44
2023/01/11 11:29:45;;;;;;;;;;;22.40;35.40;;;;;;475735;249;2211;-44
2023/01/11 11:31:47;;;;;;;;;;;22.40;35.50;;;;;;475713;249;1728;-44
2023/01/11 11:33:48;;;;;;;;;;;22.40;35.40;;;;;;475713;249;1652;-44
2023/01/11 11:35:49;;;;;;;;;;;22.40;35.50;;;;;;475925;249;1656;-44
2023/01/11 11:37:51;;;;;;;;;;;22.40;35.40;;;;;;475855;249;1632;-44
2023/01/11 11:39:52;;;;;;;;;;;22.40;35.40;;;;;;475715;249;1836;-44
2023/01/11 11:41:55;;;;;;;;;;;22.30;35.40;;;;;;475684;249;1856;-43
2023/01/11 11:43:54;;;;;;;;;;;22.40;35.50;;;;;;475498;250;1892;-43
2023/01/11 11:45:56;;;;;;;;;;;22.30;35.40;;;;;;475827;249;2122;-44
2023/01/11 11:47:57;;;;;;;;;;;22.40;35.50;;;;;;475794;249;1357;-44
2023/01/11 11:49:58;;;;;;;;;;;22.40;35.50;;;;;;475741;249;2207;-44
2023/01/11 11:52:00;;;;;;;;;;;22.30;35.40;;;;;;475690;249;1761;-44
2023/01/11 11:54:01;;;;;;;;;;;22.40;35.50;;;;;;475539;249;1632;-44
2023/01/11 11:56:02;;;;;;;;;;;22.40;35.40;;;;;;475575;249;1633;-44
2023/01/11 11:58:04;;;;;;;;;;;22.40;35.50;;;;;;475494;249;1318;-44
2023/01/11 12:00:05;;;;;;;;;;;22.30;35.40;;;;;;475686;249;1298;-44
2023/01/11 12:02:07;;;;;;;;;;;22.40;35.50;;;;;;475640;249;2182;-44
2023/01/11 12:04:08;;;;;;;;;;;22.40;35.40;;;;;;475752;249;1590;-44
2023/01/11 12:06:09;;;;;;;;;;;22.30;35.40;;;;;;475963;249;1991;-44
2023/01/11 12:08:11;;;;;;;;;;;22.30;35.40;;;;;;475603;249;2148;-44
2023/01/11 12:10:12;;;;;;;;;;;22.30;35.40;;;;;;475601;249;2180;-43
2023/01/11 12:12:13;;;;;;;;;;;22.40;35.40;;;;;;475769;249;1815;-44
2023/01/11 12:14:15;;;;;;;;;;;22.40;35.40;;;;;;475699;249;1835;-44
2023/01/11 12:16:16;;;;;;;;;;;22.40;35.40;;;;;;475868;249;1749;-44
2023/01/11 12:18:17;;;;;;;;;;;22.40;35.40;;;;;;475599;249;1688;-44
2023/01/11 12:20:19;;;;;;;;;;;22.40;35.30;;;;;;475832;249;1560;-44